sensor_id;sensor_type;location;lat;lon;timestamp;P1;durP1;ratioP1;P2;durP2;ratioP2
21550;SDS011;10936;49.836;7.078;2022-10-17T05:01:52;4.13;;;2.63;;
21550;SDS011;10936;49.836;7.078;2022-10-17T05:04:18;2.47;;;2.10;;
21550;SDS011;10936;49.836;7.078;2022-10-17T05:06:44;2.43;;;2.23;;
21550;SDS011;10936;49.836;7.078;2022-10-17T05:09:09;3.40;;;2.30;;
21550;SDS011;10936;49.836;7.078;2022-10-17T05:11:35;2.60;;;2.40;;
21550;SDS011;10936;49.836;7.078;2022-10-17T05:14:01;3.67;;;2.10;;
21550;SDS011;10936;49.836;7.078;2022-10-17T05:16:27;2.40;;;2.20;;
21550;SDS011;10936;49.836;7.078;2022-10-17T05:18:54;2.70;;;2.30;;
21550;SDS011;10936;49.836;7.078;2022-10-17T05:21:22;3.43;;;2.23;;
21550;SDS011;10936;49.836;7.078;2022-10-17T05:23:49;4.10;;;2.43;;
21550;SDS011;10936;49.836;7.078;2022-10-17T05:26:15;5.40;;;2.50;;
21550;SDS011;10936;49.836;7.078;2022-10-17T05:28:41;4.23;;;2.50;;
21550;SDS011;10936;49.836;7.078;2022-10-17T05:31:08;2.97;;;2.30;;
21550;SDS011;10936;49.836;7.078;2022-10-17T05:33:35;2.73;;;2.30;;
21550;SDS011;10936;49.836;7.078;2022-10-17T05:36:02;6.20;;;2.60;;
21550;SDS011;10936;49.836;7.078;2022-10-17T05:38:28;4.77;;;2.77;;
21550;SDS011;10936;49.836;7.078;2022-10-17T05:41:01;7.30;;;2.83;;
21550;SDS011;10936;49.836;7.078;2022-10-17T05:43:28;6.10;;;2.70;;
21550;SDS011;10936;49.836;7.078;2022-10-17T05:45:54;2.80;;;2.60;;
21550;SDS011;10936;49.836;7.078;2022-10-17T05:48:20;4.07;;;2.90;;
21550;SDS011;10936;49.836;7.078;2022-10-17T05:50:46;7.50;;;3.60;;
21550;SDS011;10936;49.836;7.078;2022-10-17T05:53:12;6.00;;;3.43;;
21550;SDS011;10936;49.836;7.078;2022-10-17T05:55:39;9.67;;;3.40;;
21550;SDS011;10936;49.836;7.078;2022-10-17T05:58:04;6.17;;;3.20;;
21550;SDS011;10936;49.836;7.078;2022-10-17T06:00:30;7.47;;;3.80;;
21550;SDS011;10936;49.836;7.078;2022-10-17T06:02:56;14.13;;;3.90;;
21550;SDS011;10936;49.836;7.078;2022-10-17T06:05:22;9.37;;;3.63;;
21550;SDS011;10936;49.836;7.078;2022-10-17T06:07:47;6.03;;;3.47;;
21550;SDS011;10936;49.836;7.078;2022-10-17T06:10:14;13.77;;;3.50;;
21550;SDS011;10936;49.836;7.078;2022-10-17T06:12:40;7.53;;;4.07;;
21550;SDS011;10936;49.836;7.078;2022-10-17T06:15:09;5.47;;;3.70;;
21550;SDS011;10936;49.836;7.078;2022-10-17T06:17:35;7.27;;;4.03;;
21550;SDS011;10936;49.836;7.078;2022-10-17T06:20:01;6.77;;;3.50;;
21550;SDS011;10936;49.836;7.078;2022-10-17T06:22:28;9.70;;;3.40;;
21550;SDS011;10936;49.836;7.078;2022-10-17T06:24:53;6.63;;;3.40;;
21550;SDS011;10936;49.836;7.078;2022-10-17T06:27:19;6.93;;;3.70;;
21550;SDS011;10936;49.836;7.078;2022-10-17T06:29:45;9.13;;;3.50;;
21550;SDS011;10936;49.836;7.078;2022-10-17T06:32:12;6.27;;;3.53;;
21550;SDS011;10936;49.836;7.078;2022-10-17T06:34:37;6.23;;;3.37;;
21550;SDS011;10936;49.836;7.078;2022-10-17T06:37:03;6.03;;;3.73;;
21550;SDS011;10936;49.836;7.078;2022-10-17T06:39:29;4.73;;;3.00;;
21550;SDS011;10936;49.836;7.078;2022-10-17T06:41:58;7.10;;;3.63;;
21550;SDS011;10936;49.836;7.078;2022-10-17T06:44:25;4.27;;;3.37;;
21550;SDS011;10936;49.836;7.078;2022-10-17T06:46:54;5.97;;;3.10;;
21550;SDS011;10936;49.836;7.078;2022-10-17T06:49:20;5.63;;;3.70;;
21550;SDS011;10936;49.836;7.078;2022-10-17T06:51:46;5.53;;;3.20;;
21550;SDS011;10936;49.836;7.078;2022-10-17T06:54:12;4.13;;;3.23;;
21550;SDS011;10936;49.836;7.078;2022-10-17T06:56:37;5.57;;;3.37;;
21550;SDS011;10936;49.836;7.078;2022-10-17T06:59:03;7.57;;;3.60;;
21550;SDS011;10936;49.836;7.078;2022-10-17T07:01:29;7.37;;;3.37;;
21550;SDS011;10936;49.836;7.078;2022-10-17T07:03:55;5.97;;;3.60;;
21550;SDS011;10936;49.836;7.078;2022-10-17T07:06:21;5.00;;;3.50;;
21550;SDS011;10936;49.836;7.078;2022-10-17T07:08:48;5.40;;;3.40;;
21550;SDS011;10936;49.836;7.078;2022-10-17T07:11:16;6.10;;;3.50;;
21550;SDS011;10936;49.836;7.078;2022-10-17T07:13:45;6.80;;;3.83;;
21550;SDS011;10936;49.836;7.078;2022-10-17T07:16:11;8.37;;;3.23;;
21550;SDS011;10936;49.836;7.078;2022-10-17T07:18:38;8.43;;;3.40;;
21550;SDS011;10936;49.836;7.078;2022-10-17T07:21:04;3.70;;;3.00;;
21550;SDS011;10936;49.836;7.078;2022-10-17T07:23:30;4.63;;;3.60;;
21550;SDS011;10936;49.836;7.078;2022-10-17T07:26:02;8.50;;;3.90;;
21550;SDS011;10936;49.836;7.078;2022-10-17T07:28:36;5.47;;;3.60;;
21550;SDS011;10936;49.836;7.078;2022-10-17T07:31:04;6.93;;;3.40;;
21550;SDS011;10936;49.836;7.078;2022-10-17T07:33:30;3.83;;;3.13;;
21550;SDS011;10936;49.836;7.078;2022-10-17T07:36:00;5.27;;;3.30;;
21550;SDS011;10936;49.836;7.078;2022-10-17T07:38:26;5.87;;;3.50;;
21550;SDS011;10936;49.836;7.078;2022-10-17T07:40:56;6.77;;;3.60;;
21550;SDS011;10936;49.836;7.078;2022-10-17T07:43:23;4.00;;;3.60;;
21550;SDS011;10936;49.836;7.078;2022-10-17T07:45:49;4.53;;;3.47;;
21550;SDS011;10936;49.836;7.078;2022-10-17T07:48:16;3.53;;;2.87;;
21550;SDS011;10936;49.836;7.078;2022-10-17T07:50:42;4.43;;;2.93;;
21550;SDS011;10936;49.836;7.078;2022-10-17T07:53:07;4.07;;;3.13;;
21550;SDS011;10936;49.836;7.078;2022-10-17T07:55:33;7.03;;;3.30;;
21550;SDS011;10936;49.836;7.078;2022-10-17T07:58:01;4.03;;;2.93;;
21550;SDS011;10936;49.836;7.078;2022-10-17T08:00:27;3.53;;;3.00;;
21550;SDS011;10936;49.836;7.078;2022-10-17T08:02:53;4.53;;;2.90;;
21550;SDS011;10936;49.836;7.078;2022-10-17T08:05:19;4.87;;;3.40;;
21550;SDS011;10936;49.836;7.078;2022-10-17T08:07:44;2.93;;;2.70;;
21550;SDS011;10936;49.836;7.078;2022-10-17T08:10:11;7.00;;;3.20;;
21550;SDS011;10936;49.836;7.078;2022-10-17T08:12:37;4.33;;;3.03;;
21550;SDS011;10936;49.836;7.078;2022-10-17T08:15:03;4.30;;;3.13;;
21550;SDS011;10936;49.836;7.078;2022-10-17T08:17:30;4.37;;;2.90;;
21550;SDS011;10936;49.836;7.078;2022-10-17T08:19:55;5.53;;;3.03;;
21550;SDS011;10936;49.836;7.078;2022-10-17T08:22:21;6.00;;;2.93;;
21550;SDS011;10936;49.836;7.078;2022-10-17T08:24:47;3.43;;;2.50;;
21550;SDS011;10936;49.836;7.078;2022-10-17T08:27:12;3.67;;;3.03;;
21550;SDS011;10936;49.836;7.078;2022-10-17T08:29:39;5.10;;;3.30;;
21550;SDS011;10936;49.836;7.078;2022-10-17T08:32:05;3.47;;;2.77;;
21550;SDS011;10936;49.836;7.078;2022-10-17T08:34:31;4.73;;;2.90;;
21550;SDS011;10936;49.836;7.078;2022-10-17T08:36:57;3.10;;;2.70;;
21550;SDS011;10936;49.836;7.078;2022-10-17T08:39:23;3.20;;;2.80;;
21550;SDS011;10936;49.836;7.078;2022-10-17T08:41:59;3.33;;;2.83;;
21550;SDS011;10936;49.836;7.078;2022-10-17T08:47:25;3.30;;;2.60;;
21550;SDS011;10936;49.836;7.078;2022-10-17T08:50:24;4.30;;;2.60;;
21550;SDS011;10936;49.836;7.078;2022-10-17T08:53:03;2.93;;;2.63;;
21550;SDS011;10936;49.836;7.078;2022-10-17T08:55:43;4.00;;;2.37;;
21550;SDS011;10936;49.836;7.078;2022-10-17T08:58:32;5.20;;;2.30;;
21550;SDS011;10936;49.836;7.078;2022-10-17T09:06:27;3.23;;;2.50;;
21550;SDS011;10936;49.836;7.078;2022-10-17T09:09:06;2.90;;;2.40;;
21550;SDS011;10936;49.836;7.078;2022-10-17T09:17:07;3.77;;;3.13;;
21550;SDS011;10936;49.836;7.078;2022-10-17T09:19:38;6.50;;;3.10;;
21550;SDS011;10936;49.836;7.078;2022-10-17T09:22:18;3.77;;;2.67;;
21550;SDS011;10936;49.836;7.078;2022-10-17T09:25:01;5.03;;;2.87;;
21550;SDS011;10936;49.836;7.078;2022-10-17T09:33:13;3.10;;;2.47;;
21550;SDS011;10936;49.836;7.078;2022-10-17T09:35:39;4.53;;;2.50;;
21550;SDS011;10936;49.836;7.078;2022-10-17T09:38:08;3.40;;;2.57;;
21550;SDS011;10936;49.836;7.078;2022-10-17T09:40:41;3.30;;;2.70;;
21550;SDS011;10936;49.836;7.078;2022-10-17T09:43:07;3.17;;;2.50;;
21550;SDS011;10936;49.836;7.078;2022-10-17T09:45:44;2.60;;;2.40;;
21550;SDS011;10936;49.836;7.078;2022-10-17T09:48:28;3.40;;;2.20;;
21550;SDS011;10936;49.836;7.078;2022-10-17T09:51:00;3.27;;;2.40;;
21550;SDS011;10936;49.836;7.078;2022-10-17T09:53:32;4.10;;;2.53;;
21550;SDS011;10936;49.836;7.078;2022-10-17T09:56:02;5.53;;;2.90;;
21550;SDS011;10936;49.836;7.078;2022-10-17T09:58:39;6.30;;;2.80;;
21550;SDS011;10936;49.836;7.078;2022-10-17T10:01:26;4.10;;;2.47;;
21550;SDS011;10936;49.836;7.078;2022-10-17T10:06:38;4.80;;;2.30;;
21550;SDS011;10936;49.836;7.078;2022-10-17T10:09:05;4.33;;;2.87;;
21550;SDS011;10936;49.836;7.078;2022-10-17T10:16:57;7.80;;;2.53;;
21550;SDS011;10936;49.836;7.078;2022-10-17T10:19:27;2.67;;;2.23;;
21550;SDS011;10936;49.836;7.078;2022-10-17T10:21:58;4.53;;;2.50;;
21550;SDS011;10936;49.836;7.078;2022-10-17T10:24:26;2.30;;;2.10;;
21550;SDS011;10936;49.836;7.078;2022-10-17T10:26:52;4.80;;;2.53;;
21550;SDS011;10936;49.836;7.078;2022-10-17T10:31:54;2.83;;;2.10;;
21550;SDS011;10936;49.836;7.078;2022-10-17T10:34:30;2.90;;;2.37;;
21550;SDS011;10936;49.836;7.078;2022-10-17T10:41:53;2.43;;;2.00;;
21550;SDS011;10936;49.836;7.078;2022-10-17T10:44:20;3.57;;;2.87;;
21550;SDS011;10936;49.836;7.078;2022-10-17T10:47:35;2.83;;;2.20;;
21550;SDS011;10936;49.836;7.078;2022-10-17T10:49:40;4.13;;;2.40;;
21550;SDS011;10936;49.836;7.078;2022-10-17T10:52:07;2.43;;;2.13;;
21550;SDS011;10936;49.836;7.078;2022-10-17T10:55:21;3.80;;;2.53;;
21550;SDS011;10936;49.836;7.078;2022-10-17T10:57:55;2.40;;;2.20;;
21550;SDS011;10936;49.836;7.078;2022-10-17T11:00:27;2.73;;;2.17;;
21550;SDS011;10936;49.836;7.078;2022-10-17T11:05:42;2.73;;;2.40;;
21550;SDS011;10936;49.836;7.078;2022-10-17T11:11:02;2.53;;;2.10;;
21550;SDS011;10936;49.836;7.078;2022-10-17T11:24:32;4.67;;;2.37;;
21550;SDS011;10936;49.836;7.078;2022-10-17T11:27:21;2.67;;;1.87;;
21550;SDS011;10936;49.836;7.078;2022-10-17T11:29:49;2.83;;;2.00;;
21550;SDS011;10936;49.836;7.078;2022-10-17T11:32:19;2.80;;;2.20;;
21550;SDS011;10936;49.836;7.078;2022-10-17T11:34:54;3.03;;;2.10;;
21550;SDS011;10936;49.836;7.078;2022-10-17T11:37:38;3.93;;;2.20;;
21550;SDS011;10936;49.836;7.078;2022-10-17T11:40:17;2.63;;;2.07;;
21550;SDS011;10936;49.836;7.078;2022-10-17T11:43:00;3.03;;;2.30;;
21550;SDS011;10936;49.836;7.078;2022-10-17T11:45:47;4.83;;;2.13;;
21550;SDS011;10936;49.836;7.078;2022-10-17T11:48:31;2.10;;;1.87;;
21550;SDS011;10936;49.836;7.078;2022-10-17T11:51:05;3.90;;;2.10;;
21550;SDS011;10936;49.836;7.078;2022-10-17T11:53:43;2.23;;;1.80;;
21550;SDS011;10936;49.836;7.078;2022-10-17T11:56:10;2.50;;;2.00;;
21550;SDS011;10936;49.836;7.078;2022-10-17T12:09:46;2.97;;;2.00;;
21550;SDS011;10936;49.836;7.078;2022-10-17T12:12:26;2.60;;;2.07;;
21550;SDS011;10936;49.836;7.078;2022-10-17T12:14:54;3.47;;;2.20;;
21550;SDS011;10936;49.836;7.078;2022-10-17T12:18:01;2.47;;;2.10;;
21550;SDS011;10936;49.836;7.078;2022-10-17T12:20:33;4.73;;;2.13;;
21550;SDS011;10936;49.836;7.078;2022-10-17T12:25:50;3.30;;;2.00;;
21550;SDS011;10936;49.836;7.078;2022-10-17T12:30:52;2.40;;;2.10;;
21550;SDS011;10936;49.836;7.078;2022-10-17T12:38:45;3.03;;;2.00;;
21550;SDS011;10936;49.836;7.078;2022-10-17T12:41:16;4.23;;;1.90;;
21550;SDS011;10936;49.836;7.078;2022-10-17T12:46:45;4.43;;;2.00;;
21550;SDS011;10936;49.836;7.078;2022-10-17T12:49:58;4.40;;;2.07;;
21550;SDS011;10936;49.836;7.078;2022-10-17T13:02:54;8.33;;;2.40;;
21550;SDS011;10936;49.836;7.078;2022-10-17T13:05:27;4.80;;;2.63;;
21550;SDS011;10936;49.836;7.078;2022-10-17T13:07:55;4.63;;;2.70;;
21550;SDS011;10936;49.836;7.078;2022-10-17T13:10:25;3.77;;;2.00;;
21550;SDS011;10936;49.836;7.078;2022-10-17T13:12:57;5.57;;;2.33;;
21550;SDS011;10936;49.836;7.078;2022-10-17T13:15:30;6.73;;;2.37;;
21550;SDS011;10936;49.836;7.078;2022-10-17T13:17:56;6.80;;;2.00;;
21550;SDS011;10936;49.836;7.078;2022-10-17T13:20:24;5.03;;;2.33;;
21550;SDS011;10936;49.836;7.078;2022-10-17T13:22:53;6.60;;;2.47;;
21550;SDS011;10936;49.836;7.078;2022-10-17T13:25:20;3.77;;;2.20;;
21550;SDS011;10936;49.836;7.078;2022-10-17T13:27:47;3.47;;;1.97;;
21550;SDS011;10936;49.836;7.078;2022-10-17T13:30:27;5.13;;;2.43;;
21550;SDS011;10936;49.836;7.078;2022-10-17T13:32:54;3.63;;;2.20;;
21550;SDS011;10936;49.836;7.078;2022-10-17T13:35:24;2.93;;;2.03;;
21550;SDS011;10936;49.836;7.078;2022-10-17T13:37:50;3.97;;;1.93;;
21550;SDS011;10936;49.836;7.078;2022-10-17T13:40:18;7.47;;;2.40;;
21550;SDS011;10936;49.836;7.078;2022-10-17T13:42:46;5.40;;;2.23;;
21550;SDS011;10936;49.836;7.078;2022-10-17T13:45:17;2.73;;;2.17;;
21550;SDS011;10936;49.836;7.078;2022-10-17T13:47:47;3.40;;;2.10;;
21550;SDS011;10936;49.836;7.078;2022-10-17T13:50:22;4.13;;;2.30;;
21550;SDS011;10936;49.836;7.078;2022-10-17T13:55:52;2.87;;;2.00;;
21550;SDS011;10936;49.836;7.078;2022-10-17T13:58:23;4.23;;;1.87;;
21550;SDS011;10936;49.836;7.078;2022-10-17T14:00:49;5.93;;;2.30;;
21550;SDS011;10936;49.836;7.078;2022-10-17T14:03:17;4.47;;;2.10;;
21550;SDS011;10936;49.836;7.078;2022-10-17T14:13:58;7.93;;;2.07;;
21550;SDS011;10936;49.836;7.078;2022-10-17T14:16:26;3.90;;;1.87;;
21550;SDS011;10936;49.836;7.078;2022-10-17T14:18:58;4.07;;;2.30;;
21550;SDS011;10936;49.836;7.078;2022-10-17T14:21:25;2.50;;;1.90;;
21550;SDS011;10936;49.836;7.078;2022-10-17T14:24:14;3.80;;;2.10;;
21550;SDS011;10936;49.836;7.078;2022-10-17T14:26:54;4.27;;;1.97;;
21550;SDS011;10936;49.836;7.078;2022-10-17T14:29:28;4.53;;;2.23;;
21550;SDS011;10936;49.836;7.078;2022-10-17T14:31:59;2.57;;;1.90;;
21550;SDS011;10936;49.836;7.078;2022-10-17T14:34:29;3.90;;;2.10;;
21550;SDS011;10936;49.836;7.078;2022-10-17T14:36:59;5.23;;;2.63;;
21550;SDS011;10936;49.836;7.078;2022-10-17T14:39:26;4.70;;;2.10;;
21550;SDS011;10936;49.836;7.078;2022-10-17T14:41:53;3.77;;;2.17;;
21550;SDS011;10936;49.836;7.078;2022-10-17T14:44:20;3.80;;;2.27;;
21550;SDS011;10936;49.836;7.078;2022-10-17T14:46:47;2.27;;;1.90;;
21550;SDS011;10936;49.836;7.078;2022-10-17T14:49:18;6.13;;;2.93;;
21550;SDS011;10936;49.836;7.078;2022-10-17T14:54:42;5.27;;;1.93;;
21550;SDS011;10936;49.836;7.078;2022-10-17T14:57:39;4.33;;;2.00;;
21550;SDS011;10936;49.836;7.078;2022-10-17T15:00:05;3.73;;;2.20;;
21550;SDS011;10936;49.836;7.078;2022-10-17T15:02:31;5.20;;;1.80;;
21550;SDS011;10936;49.836;7.078;2022-10-17T15:04:57;4.20;;;2.10;;
21550;SDS011;10936;49.836;7.078;2022-10-17T15:07:22;6.50;;;2.83;;
21550;SDS011;10936;49.836;7.078;2022-10-17T15:09:49;10.70;;;2.27;;
21550;SDS011;10936;49.836;7.078;2022-10-17T15:12:20;4.68;;;2.30;;
21550;SDS011;10936;49.836;7.078;2022-10-17T15:14:47;4.47;;;2.00;;
21550;SDS011;10936;49.836;7.078;2022-10-17T15:17:15;4.00;;;2.00;;
21550;SDS011;10936;49.836;7.078;2022-10-17T15:19:48;4.53;;;1.90;;
21550;SDS011;10936;49.836;7.078;2022-10-17T15:22:14;4.47;;;2.10;;
21550;SDS011;10936;49.836;7.078;2022-10-17T15:24:40;5.07;;;2.73;;
21550;SDS011;10936;49.836;7.078;2022-10-17T15:27:13;4.77;;;2.00;;
21550;SDS011;10936;49.836;7.078;2022-10-17T15:29:44;5.10;;;2.00;;
21550;SDS011;10936;49.836;7.078;2022-10-17T15:32:10;3.80;;;1.80;;
21550;SDS011;10936;49.836;7.078;2022-10-17T15:34:36;2.73;;;1.90;;
21550;SDS011;10936;49.836;7.078;2022-10-17T15:37:02;2.77;;;1.77;;
21550;SDS011;10936;49.836;7.078;2022-10-17T15:39:29;5.77;;;2.17;;
21550;SDS011;10936;49.836;7.078;2022-10-17T15:41:55;3.73;;;2.20;;
21550;SDS011;10936;49.836;7.078;2022-10-17T15:44:21;2.80;;;1.90;;
21550;SDS011;10936;49.836;7.078;2022-10-17T15:46:46;3.23;;;2.00;;
21550;SDS011;10936;49.836;7.078;2022-10-17T15:49:12;3.80;;;2.00;;
21550;SDS011;10936;49.836;7.078;2022-10-17T15:51:41;4.50;;;2.17;;
21550;SDS011;10936;49.836;7.078;2022-10-17T15:54:07;4.03;;;2.13;;
21550;SDS011;10936;49.836;7.078;2022-10-17T15:56:36;6.30;;;2.13;;
21550;SDS011;10936;49.836;7.078;2022-10-17T15:59:05;4.70;;;2.00;;
21550;SDS011;10936;49.836;7.078;2022-10-17T16:01:35;2.93;;;2.03;;
21550;SDS011;10936;49.836;7.078;2022-10-17T16:04:02;5.17;;;2.20;;
21550;SDS011;10936;49.836;7.078;2022-10-17T16:06:28;4.60;;;2.20;;
21550;SDS011;10936;49.836;7.078;2022-10-17T16:08:53;3.37;;;2.30;;
21550;SDS011;10936;49.836;7.078;2022-10-17T16:11:23;6.40;;;2.40;;
21550;SDS011;10936;49.836;7.078;2022-10-17T16:14:03;11.93;;;2.50;;
21550;SDS011;10936;49.836;7.078;2022-10-17T16:16:34;3.80;;;2.40;;
21550;SDS011;10936;49.836;7.078;2022-10-17T16:19:00;5.77;;;2.77;;
21550;SDS011;10936;49.836;7.078;2022-10-17T16:21:27;3.93;;;2.43;;
21550;SDS011;10936;49.836;7.078;2022-10-17T16:23:55;4.63;;;2.30;;
21550;SDS011;10936;49.836;7.078;2022-10-17T16:26:21;5.03;;;2.57;;
21550;SDS011;10936;49.836;7.078;2022-10-17T16:28:47;3.97;;;2.30;;
21550;SDS011;10936;49.836;7.078;2022-10-17T16:31:23;4.33;;;2.37;;
21550;SDS011;10936;49.836;7.078;2022-10-17T16:33:53;3.60;;;2.50;;
21550;SDS011;10936;49.836;7.078;2022-10-17T16:36:19;4.43;;;2.30;;
21550;SDS011;10936;49.836;7.078;2022-10-17T16:38:46;4.93;;;1.97;;
21550;SDS011;10936;49.836;7.078;2022-10-17T16:41:20;5.03;;;2.70;;
21550;SDS011;10936;49.836;7.078;2022-10-17T16:43:49;9.40;;;2.63;;
21550;SDS011;10936;49.836;7.078;2022-10-17T16:46:16;3.77;;;2.50;;
21550;SDS011;10936;49.836;7.078;2022-10-17T16:48:43;8.03;;;2.40;;
21550;SDS011;10936;49.836;7.078;2022-10-17T16:51:10;5.90;;;2.60;;
21550;SDS011;10936;49.836;7.078;2022-10-17T16:53:37;3.03;;;2.47;;
21550;SDS011;10936;49.836;7.078;2022-10-17T16:56:04;2.83;;;2.27;;
21550;SDS011;10936;49.836;7.078;2022-10-17T16:58:32;4.57;;;2.70;;
21550;SDS011;10936;49.836;7.078;2022-10-17T17:01:05;6.87;;;2.63;;
21550;SDS011;10936;49.836;7.078;2022-10-17T17:03:36;9.53;;;2.60;;
21550;SDS011;10936;49.836;7.078;2022-10-17T17:06:03;4.60;;;2.33;;
21550;SDS011;10936;49.836;7.078;2022-10-17T17:08:30;5.23;;;2.97;;
21550;SDS011;10936;49.836;7.078;2022-10-17T17:10:56;8.90;;;2.60;;
21550;SDS011;10936;49.836;7.078;2022-10-17T17:13:23;5.27;;;2.30;;
21550;SDS011;10936;49.836;7.078;2022-10-17T17:15:49;4.00;;;2.40;;
21550;SDS011;10936;49.836;7.078;2022-10-17T17:18:20;3.90;;;2.40;;
21550;SDS011;10936;49.836;7.078;2022-10-17T17:20:46;2.80;;;2.23;;
21550;SDS011;10936;49.836;7.078;2022-10-17T17:23:12;4.20;;;2.30;;
21550;SDS011;10936;49.836;7.078;2022-10-17T17:25:38;4.80;;;2.63;;
21550;SDS011;10936;49.836;7.078;2022-10-17T17:28:05;4.80;;;2.50;;
21550;SDS011;10936;49.836;7.078;2022-10-17T17:30:33;4.60;;;2.20;;
21550;SDS011;10936;49.836;7.078;2022-10-17T17:33:00;4.70;;;2.20;;
21550;SDS011;10936;49.836;7.078;2022-10-17T17:35:26;5.00;;;2.57;;
21550;SDS011;10936;49.836;7.078;2022-10-17T17:37:52;5.23;;;2.30;;
21550;SDS011;10936;49.836;7.078;2022-10-17T17:40:18;4.87;;;2.30;;
21550;SDS011;10936;49.836;7.078;2022-10-17T17:42:44;4.93;;;2.80;;
21550;SDS011;10936;49.836;7.078;2022-10-17T17:45:09;4.00;;;2.57;;
21550;SDS011;10936;49.836;7.078;2022-10-17T17:47:36;4.47;;;2.70;;
21550;SDS011;10936;49.836;7.078;2022-10-17T17:50:01;5.17;;;2.80;;
21550;SDS011;10936;49.836;7.078;2022-10-17T17:52:27;5.60;;;2.80;;
21550;SDS011;10936;49.836;7.078;2022-10-17T17:54:54;4.03;;;2.43;;
21550;SDS011;10936;49.836;7.078;2022-10-17T17:57:19;6.83;;;2.57;;
21550;SDS011;10936;49.836;7.078;2022-10-17T17:59:45;8.13;;;2.77;;
21550;SDS011;10936;49.836;7.078;2022-10-17T18:02:13;4.30;;;2.60;;
21550;SDS011;10936;49.836;7.078;2022-10-17T18:04:39;3.83;;;2.80;;
21550;SDS011;10936;49.836;7.078;2022-10-17T18:07:05;4.50;;;2.80;;
21550;SDS011;10936;49.836;7.078;2022-10-17T18:09:30;2.97;;;2.60;;
21550;SDS011;10936;49.836;7.078;2022-10-17T18:11:56;7.93;;;2.80;;
21550;SDS011;10936;49.836;7.078;2022-10-17T18:14:22;4.50;;;2.63;;
21550;SDS011;10936;49.836;7.078;2022-10-17T18:16:48;5.47;;;2.43;;
21550;SDS011;10936;49.836;7.078;2022-10-17T18:19:14;4.17;;;2.53;;
21550;SDS011;10936;49.836;7.078;2022-10-17T18:21:40;5.17;;;3.00;;
21550;SDS011;10936;49.836;7.078;2022-10-17T18:24:07;10.10;;;2.93;;
21550;SDS011;10936;49.836;7.078;2022-10-17T18:26:33;4.47;;;2.67;;
21550;SDS011;10936;49.836;7.078;2022-10-17T18:28:59;5.57;;;2.57;;
21550;SDS011;10936;49.836;7.078;2022-10-17T18:31:24;5.27;;;2.63;;
21550;SDS011;10936;49.836;7.078;2022-10-17T18:33:59;6.70;;;2.70;;
21550;SDS011;10936;49.836;7.078;2022-10-17T18:36:26;5.67;;;2.37;;
21550;SDS011;10936;49.836;7.078;2022-10-17T18:38:53;4.60;;;2.50;;
21550;SDS011;10936;49.836;7.078;2022-10-17T18:41:20;6.82;;;2.35;;
21550;SDS011;10936;49.836;7.078;2022-10-17T18:43:48;6.03;;;2.73;;
21550;SDS011;10936;49.836;7.078;2022-10-17T18:46:15;5.43;;;2.87;;
21550;SDS011;10936;49.836;7.078;2022-10-17T18:48:43;5.70;;;2.50;;
21550;SDS011;10936;49.836;7.078;2022-10-17T18:51:11;9.60;;;2.90;;
21550;SDS011;10936;49.836;7.078;2022-10-17T18:53:38;5.57;;;2.67;;
21550;SDS011;10936;49.836;7.078;2022-10-17T18:56:05;4.80;;;2.67;;
21550;SDS011;10936;49.836;7.078;2022-10-17T18:58:31;11.63;;;3.03;;
21550;SDS011;10936;49.836;7.078;2022-10-17T19:01:03;9.00;;;3.10;;
21550;SDS011;10936;49.836;7.078;2022-10-17T19:03:31;5.73;;;2.50;;
21550;SDS011;10936;49.836;7.078;2022-10-17T19:06:00;5.40;;;2.73;;
21550;SDS011;10936;49.836;7.078;2022-10-17T19:08:27;4.43;;;2.53;;
21550;SDS011;10936;49.836;7.078;2022-10-17T19:10:53;5.33;;;2.70;;
21550;SDS011;10936;49.836;7.078;2022-10-17T19:13:18;7.93;;;2.60;;
21550;SDS011;10936;49.836;7.078;2022-10-17T19:15:44;9.57;;;2.90;;
21550;SDS011;10936;49.836;7.078;2022-10-17T19:18:10;6.73;;;2.97;;
21550;SDS011;10936;49.836;7.078;2022-10-17T19:20:35;9.00;;;2.50;;
21550;SDS011;10936;49.836;7.078;2022-10-17T19:23:01;6.17;;;2.43;;
21550;SDS011;10936;49.836;7.078;2022-10-17T19:25:27;7.07;;;2.50;;
21550;SDS011;10936;49.836;7.078;2022-10-17T19:27:54;7.80;;;2.20;;
21550;SDS011;10936;49.836;7.078;2022-10-17T19:30:20;6.03;;;2.43;;
21550;SDS011;10936;49.836;7.078;2022-10-17T19:32:46;4.67;;;2.50;;
21550;SDS011;10936;49.836;7.078;2022-10-17T19:35:12;5.57;;;2.70;;
21550;SDS011;10936;49.836;7.078;2022-10-17T19:37:38;4.63;;;2.40;;
21550;SDS011;10936;49.836;7.078;2022-10-17T19:40:04;6.50;;;2.50;;
21550;SDS011;10936;49.836;7.078;2022-10-17T19:42:30;6.57;;;2.53;;
21550;SDS011;10936;49.836;7.078;2022-10-17T19:44:56;4.60;;;2.57;;
21550;SDS011;10936;49.836;7.078;2022-10-17T19:47:22;5.90;;;2.73;;
21550;SDS011;10936;49.836;7.078;2022-10-17T19:49:47;6.77;;;2.80;;
21550;SDS011;10936;49.836;7.078;2022-10-17T19:52:13;7.27;;;2.73;;
21550;SDS011;10936;49.836;7.078;2022-10-17T19:54:39;5.10;;;2.70;;
21550;SDS011;10936;49.836;7.078;2022-10-17T19:57:05;5.37;;;2.60;;
21550;SDS011;10936;49.836;7.078;2022-10-17T19:59:31;4.57;;;2.57;;
21550;SDS011;10936;49.836;7.078;2022-10-17T20:01:56;4.90;;;2.50;;
21550;SDS011;10936;49.836;7.078;2022-10-17T20:04:22;4.60;;;2.70;;
21550;SDS011;10936;49.836;7.078;2022-10-17T20:06:48;3.43;;;2.47;;
21550;SDS011;10936;49.836;7.078;2022-10-17T20:09:14;3.67;;;2.47;;
21550;SDS011;10936;49.836;7.078;2022-10-17T20:11:40;6.47;;;2.30;;
21550;SDS011;10936;49.836;7.078;2022-10-17T20:14:05;5.33;;;2.50;;
21550;SDS011;10936;49.836;7.078;2022-10-17T20:16:32;4.33;;;2.80;;
21550;SDS011;10936;49.836;7.078;2022-10-17T20:19:06;6.27;;;2.57;;
21550;SDS011;10936;49.836;7.078;2022-10-17T20:21:35;4.23;;;2.50;;
21550;SDS011;10936;49.836;7.078;2022-10-17T20:24:04;4.53;;;2.67;;
21550;SDS011;10936;49.836;7.078;2022-10-17T20:26:31;5.47;;;2.77;;
21550;SDS011;10936;49.836;7.078;2022-10-17T20:28:59;4.03;;;2.80;;
21550;SDS011;10936;49.836;7.078;2022-10-17T20:31:26;4.47;;;2.73;;
21550;SDS011;10936;49.836;7.078;2022-10-17T20:33:58;6.73;;;2.77;;
21550;SDS011;10936;49.836;7.078;2022-10-17T20:36:24;6.53;;;3.13;;
21550;SDS011;10936;49.836;7.078;2022-10-17T20:38:54;4.57;;;2.63;;
21550;SDS011;10936;49.836;7.078;2022-10-17T20:41:21;6.67;;;3.30;;
21550;SDS011;10936;49.836;7.078;2022-10-17T20:43:50;5.27;;;2.90;;
21550;SDS011;10936;49.836;7.078;2022-10-17T20:46:18;3.93;;;2.83;;
21550;SDS011;10936;49.836;7.078;2022-10-17T20:48:44;4.90;;;2.83;;
21550;SDS011;10936;49.836;7.078;2022-10-17T20:51:10;3.83;;;2.70;;
21550;SDS011;10936;49.836;7.078;2022-10-17T20:53:36;6.30;;;2.67;;
21550;SDS011;10936;49.836;7.078;2022-10-17T20:56:03;3.65;;;2.60;;
21550;SDS011;10936;49.836;7.078;2022-10-17T20:58:33;5.27;;;3.03;;
21550;SDS011;10936;49.836;7.078;2022-10-17T21:01:05;3.80;;;2.63;;
21550;SDS011;10936;49.836;7.078;2022-10-17T21:03:36;4.33;;;2.70;;
21550;SDS011;10936;49.836;7.078;2022-10-17T21:06:03;4.20;;;2.90;;
21550;SDS011;10936;49.836;7.078;2022-10-17T21:08:29;11.50;;;3.80;;
21550;SDS011;10936;49.836;7.078;2022-10-17T21:11:05;9.13;;;2.90;;
21550;SDS011;10936;49.836;7.078;2022-10-17T21:13:32;5.20;;;2.97;;
21550;SDS011;10936;49.836;7.078;2022-10-17T21:16:02;5.53;;;3.10;;
21550;SDS011;10936;49.836;7.078;2022-10-17T21:18:33;6.40;;;3.10;;
21550;SDS011;10936;49.836;7.078;2022-10-17T21:21:16;7.13;;;3.77;;
21550;SDS011;10936;49.836;7.078;2022-10-17T21:23:44;4.47;;;2.90;;
21550;SDS011;10936;49.836;7.078;2022-10-17T21:26:12;5.33;;;2.70;;
21550;SDS011;10936;49.836;7.078;2022-10-17T21:28:38;6.57;;;2.33;;
